»·PEaware :: MRR23 2OR4-KONP

MRR23 :: 2OR4-KONP

FLIGHT INFORMATION

Flight Status: Arrived
Operator:
San Juan Airlines
More flights by this operator :: More flights under this callsign
Pilot: Alex L. (5269)
Aircraft: GRUMMAN AERO G-21 A/38/30 GOOSE
(G21)
More flights by this aircraft type
Origin: 2OR4 Heavens Gate Ranch
United States
Destination: KONP Newport Mun
United States
More flights between these airports :: More routes between these airports
Route: DCT
File this flight plan on PilotEdge
Remarks: San Juan Virtual Airlines and FSEconomy flight
Altitude:
(Current/Filed)
4,500ft
Speed:
(Current/Filed)
155kts
Departed: 23-Jan-17 04:37 PM
Arrived: 23-Jan-17 05:10 PM
Distance/Time
Traveled:
73nm/0:33
Distance/Time
To Go:
Arrived

Flight Plot

Page will automatically refresh every two minutes.


Map Options




Map Legend


Flown Route
Filed Route
Departure Airport
Arrival Airport
Navaid (VOR, NDB)
Fix

Horizontal Profiles

Position Reports

Time Latitude Longitude Heading Altitude Ground
Speed
23-Jan-17 16:17 43.474700 -123.343322 301 969ft 0kts
23-Jan-17 16:18 43.474700 -123.343322 301 969ft 0kts
23-Jan-17 16:19 43.474700 -123.343322 301 969ft 0kts
23-Jan-17 16:20 43.474700 -123.343322 301 969ft 0kts
23-Jan-17 16:21 43.474700 -123.343322 301 969ft 0kts
23-Jan-17 16:22 43.474700 -123.343322 301 969ft 0kts
23-Jan-17 16:23 43.474700 -123.343322 301 969ft 0kts
23-Jan-17 16:24 43.474701 -123.343323 301 969ft 0kts
23-Jan-17 16:25 43.474701 -123.343323 301 969ft 0kts
23-Jan-17 16:26 43.474702 -123.343325 301 969ft 0kts
23-Jan-17 16:27 43.474702 -123.343326 301 969ft 0kts
23-Jan-17 16:28 43.474703 -123.343327 301 969ft 0kts
23-Jan-17 16:29 43.474703 -123.343328 301 969ft 0kts
23-Jan-17 16:30 43.474704 -123.343331 301 969ft 0kts
23-Jan-17 16:31 43.474706 -123.343334 301 969ft 0kts
23-Jan-17 16:32 43.474707 -123.343336 301 969ft 0kts
23-Jan-17 16:33 43.474707 -123.343337 301 969ft 0kts
23-Jan-17 16:34 43.474455 -123.343064 117 969ft 7kts
23-Jan-17 16:35 43.473660 -123.341476 303 969ft 0kts
23-Jan-17 16:36 43.473668 -123.341492 303 969ft 0kts
23-Jan-17 16:37 43.475838 -123.346299 299 969ft 73kts
23-Jan-17 16:38 43.492802 -123.370101 359 1758ft 107kts
23-Jan-17 16:39 43.517462 -123.378682 306 2886ft 97kts
23-Jan-17 16:40 43.539312 -123.409014 314 3706ft 115kts
23-Jan-17 16:41 43.565296 -123.440831 315 4496ft 137kts
23-Jan-17 16:42 43.594711 -123.479379 303 4611ft 166kts
23-Jan-17 16:43 43.627409 -123.526841 309 4574ft 168kts
23-Jan-17 16:44 43.661664 -123.569966 308 4509ft 166kts
23-Jan-17 16:45 43.694703 -123.612579 307 4575ft 163kts
23-Jan-17 16:46 43.727022 -123.656329 304 4621ft 161kts
23-Jan-17 16:47 43.758619 -123.701249 309 4601ft 166kts
23-Jan-17 16:48 43.791032 -123.745632 299 4607ft 160kts
23-Jan-17 16:49 43.821169 -123.790390 310 4586ft 162kts
23-Jan-17 16:50 43.855182 -123.831548 306 4519ft 160kts
23-Jan-17 16:51 43.890754 -123.870641 312 4474ft 163kts
23-Jan-17 16:52 43.926838 -123.908510 313 4466ft 163kts
23-Jan-17 16:53 43.962179 -123.947681 309 4448ft 163kts
23-Jan-17 16:54 43.995115 -123.989978 304 4531ft 156kts
23-Jan-17 16:55 44.024793 -124.033097 300 4604ft 152kts
23-Jan-17 16:56 44.053045 -124.077557 301 4615ft 154kts
23-Jan-17 16:57 44.080623 -124.122701 302 4596ft 156kts
23-Jan-17 16:58 44.125908 -124.130234 4 4608ft 180kts
23-Jan-17 16:59 44.176032 -124.122319 0 4568ft 182kts
23-Jan-17 17:00 44.224431 -124.115214 2 4564ft 182kts
23-Jan-17 17:01 44.271241 -124.108024 0 4515ft 185kts
23-Jan-17 17:02 44.319122 -124.102288 3 4337ft 159kts
23-Jan-17 17:03 44.363564 -124.095633 3 3716ft 163kts
23-Jan-17 17:04 44.408107 -124.087716 7 3112ft 160kts
23-Jan-17 17:05 44.450926 -124.079538 8 2512ft 154kts
23-Jan-17 17:06 44.492435 -124.070160 16 1940ft 144kts
23-Jan-17 17:07 44.526476 -124.057760 9 1279ft 109kts
23-Jan-17 17:08 44.552206 -124.057364 0 722ft 86kts
23-Jan-17 17:09 44.574070 -124.058525 356 145ft 65kts
23-Jan-17 17:10 44.581303 -124.059009 355 142ft 13kts
23-Jan-17 17:11 44.581462 -124.060179 186 142ft 6kts
23-Jan-17 17:12 44.578389 -124.060050 205 142ft 7kts
23-Jan-17 17:13 44.577686 -124.061456 265 142ft 2kts
23-Jan-17 17:14 44.577682 -124.061521 266 142ft 0kts
23-Jan-17 17:15 44.577682 -124.061521 266 142ft 0kts
23-Jan-17 17:16 44.577682 -124.061521 266 142ft 0kts

Navigation Log

Ident Type
Flight plan parsing failed, navigation log unavailable